createdAt,value
2022-09-02T00:01:39.627Z,13.72
2022-09-02T00:04:10.664Z,13.74
2022-09-02T00:06:37.455Z,13.71
2022-09-02T00:09:07.468Z,13.73
2022-09-02T00:11:36.047Z,13.71
2022-09-02T00:14:05.970Z,13.70
2022-09-02T00:16:33.598Z,13.70
2022-09-02T00:19:02.635Z,13.68
2022-09-02T00:21:31.096Z,13.68
2022-09-02T00:23:57.766Z,13.63
2022-09-02T00:26:24.752Z,13.64
2022-09-02T00:28:56.159Z,13.66
2022-09-02T00:31:27.681Z,13.62
2022-09-02T00:33:54.987Z,13.62
2022-09-02T00:36:22.043Z,13.63
2022-09-02T00:38:49.338Z,13.64
2022-09-02T00:41:16.116Z,13.60
2022-09-02T00:43:53.663Z,13.58
2022-09-02T00:46:23.805Z,13.58
2022-09-02T00:49:00.464Z,13.53
2022-09-02T00:51:31.993Z,13.54
2022-09-02T00:53:59.574Z,13.57
2022-09-02T00:56:30.201Z,13.60
2022-09-02T00:58:58.134Z,13.57
2022-09-02T01:01:25.617Z,13.54
2022-09-02T01:03:52.810Z,13.54
2022-09-02T01:06:25.226Z,13.52
2022-09-02T01:08:59.496Z,13.54
2022-09-02T01:11:32.518Z,13.53
2022-09-02T01:13:59.717Z,13.55
2022-09-02T01:16:44.162Z,13.54
2022-09-02T01:19:23.107Z,13.48
2022-09-02T01:21:55.225Z,13.44
2022-09-02T01:24:26.261Z,13.44
2022-09-02T01:26:55.650Z,13.42
2022-09-02T01:29:24.075Z,13.41
2022-09-02T01:31:51.710Z,13.43
2022-09-02T01:34:18.711Z,13.37
2022-09-02T01:36:45.670Z,13.31
2022-09-02T01:39:13.643Z,13.34
2022-09-02T01:41:40.359Z,13.32
2022-09-02T01:44:07.619Z,13.32
2022-09-02T01:46:35.538Z,13.33
2022-09-02T01:49:02.245Z,13.31
2022-09-02T01:51:29.210Z,13.30
2022-09-02T01:53:56.057Z,13.28
2022-09-02T01:56:22.918Z,13.26
2022-09-02T01:58:49.599Z,13.26
2022-09-02T02:01:17.015Z,13.27
2022-09-02T02:03:44.246Z,13.26
2022-09-02T02:06:14.106Z,13.25
2022-09-02T02:08:41.324Z,13.26
2022-09-02T02:11:08.948Z,13.26
2022-09-02T02:13:36.248Z,13.25
2022-09-02T02:16:03.534Z,13.22
2022-09-02T02:18:31.179Z,13.20
2022-09-02T02:20:57.892Z,13.18
2022-09-02T02:23:24.743Z,13.15
2022-09-02T02:25:51.455Z,13.14
2022-09-02T02:28:18.345Z,13.16
2022-09-02T02:30:45.211Z,13.14
2022-09-02T02:33:12.038Z,13.12
2022-09-02T02:35:38.704Z,13.10
2022-09-02T02:38:05.517Z,13.08
2022-09-02T02:40:33.031Z,13.10
2022-09-02T02:42:59.759Z,13.07
2022-09-02T02:45:26.753Z,13.08
2022-09-02T02:47:54.405Z,13.05
2022-09-02T02:50:23.479Z,13.02
2022-09-02T02:52:50.905Z,12.99
2022-09-02T02:55:18.196Z,12.95
2022-09-02T02:57:46.088Z,12.93
2022-09-02T03:00:22.614Z,12.93
2022-09-02T03:02:49.969Z,12.90
2022-09-02T03:05:17.951Z,12.87
2022-09-02T03:07:44.733Z,12.85
2022-09-02T03:10:13.262Z,12.82
2022-09-02T03:12:41.087Z,12.80
2022-09-02T03:15:09.842Z,12.78
2022-09-02T03:17:36.577Z,12.75
2022-09-02T03:20:05.552Z,12.72
2022-09-02T03:22:32.275Z,12.68
2022-09-02T03:24:59.160Z,12.64
2022-09-02T03:27:26.023Z,12.62
2022-09-02T03:29:52.940Z,12.60
2022-09-02T03:32:19.675Z,12.61
2022-09-02T03:34:46.416Z,12.58
2022-09-02T03:37:13.519Z,12.56
2022-09-02T03:39:41.045Z,12.54
2022-09-02T03:42:08.287Z,12.49
2022-09-02T03:44:46.475Z,12.44
2022-09-02T03:47:15.283Z,12.40
2022-09-02T03:49:43.720Z,12.38
2022-09-02T03:52:10.917Z,12.36
2022-09-02T03:54:37.650Z,12.33
2022-09-02T03:57:04.616Z,12.29
2022-09-02T03:59:32.666Z,12.26
2022-09-02T04:02:01.964Z,12.23
2022-09-02T04:04:29.626Z,12.21
2022-09-02T04:06:57.779Z,12.14
2022-09-02T04:09:24.700Z,12.10
2022-09-02T04:11:51.771Z,12.08
2022-09-02T04:14:18.549Z,12.00
2022-09-02T04:16:45.298Z,11.96
2022-09-02T04:19:12.209Z,11.93
2022-09-02T04:21:39.980Z,11.89
2022-09-02T04:24:09.461Z,11.85
2022-09-02T04:26:36.508Z,11.79
2022-09-02T04:29:09.267Z,11.73
2022-09-02T04:31:36.790Z,11.65
2022-09-02T04:34:04.189Z,11.59
2022-09-02T04:36:31.107Z,11.57
2022-09-02T04:38:58.609Z,11.54
2022-09-02T04:41:28.850Z,11.52
2022-09-02T04:43:57.437Z,11.51
2022-09-02T04:46:34.241Z,11.46
2022-09-02T04:49:03.508Z,11.40
2022-09-02T04:51:30.394Z,11.39
2022-09-02T04:53:57.450Z,11.34
2022-09-02T04:56:27.361Z,11.26
2022-09-02T04:58:54.593Z,11.20
2022-09-02T05:01:25.543Z,11.20
2022-09-02T05:03:54.176Z,11.19
2022-09-02T05:06:26.395Z,11.18
2022-09-02T05:08:54.859Z,11.09
2022-09-02T05:11:24.071Z,11.05
2022-09-02T05:13:51.737Z,11.01
2022-09-02T05:16:25.470Z,10.99
2022-09-02T05:18:53.222Z,11.01
2022-09-02T05:21:20.977Z,10.99
2022-09-02T05:23:47.637Z,10.98
2022-09-02T05:26:14.434Z,11.00
2022-09-02T05:28:41.896Z,11.01
2022-09-02T05:31:15.226Z,11.01
2022-09-02T05:33:42.470Z,11.02
2022-09-02T05:36:20.525Z,11.07
2022-09-02T05:38:48.173Z,11.38
2022-09-02T05:41:18.039Z,11.84
2022-09-02T05:43:45.867Z,12.17
2022-09-02T05:46:17.769Z,12.54
2022-09-02T05:49:04.420Z,12.80
2022-09-02T05:51:32.398Z,13.06
2022-09-02T05:54:00.516Z,13.24
2022-09-02T05:56:28.268Z,13.46
2022-09-02T05:58:57.358Z,13.72
2022-09-02T06:01:24.174Z,13.89
2022-09-02T06:03:52.507Z,14.12
2022-09-02T06:06:23.065Z,14.23
2022-09-02T06:08:51.111Z,14.41
2022-09-02T06:11:18.482Z,14.47
2022-09-02T06:13:45.225Z,14.72
2022-09-02T06:16:20.767Z,14.76
2022-09-02T06:18:48.347Z,14.96
2022-09-02T06:21:16.131Z,15.28
2022-09-02T06:23:43.679Z,15.55
2022-09-02T06:26:13.321Z,15.87
2022-09-02T06:28:41.221Z,15.94
2022-09-02T06:31:16.944Z,16.03
2022-09-02T06:33:45.817Z,15.99
2022-09-02T06:36:18.146Z,16.13
2022-09-02T06:38:48.382Z,16.19
2022-09-02T06:41:19.641Z,16.32
2022-09-02T06:43:46.315Z,16.64
2022-09-02T06:46:23.545Z,16.67
2022-09-02T06:48:50.554Z,16.81
2022-09-02T06:51:23.751Z,16.78
2022-09-02T06:53:50.642Z,16.85
2022-09-02T06:56:18.224Z,17.09
2022-09-02T06:58:45.125Z,17.39
2022-09-02T07:01:22.179Z,17.67
2022-09-02T07:04:07.493Z,17.70
2022-09-02T07:06:38.507Z,17.73
2022-09-02T07:09:06.444Z,17.83
2022-09-02T07:11:33.390Z,17.77
2022-09-02T07:14:01.866Z,17.90
2022-09-02T07:16:31.093Z,17.87
2022-09-02T07:18:58.538Z,17.80
2022-09-02T07:21:25.288Z,17.88
2022-09-02T07:23:52.139Z,18.09
2022-09-02T07:26:18.835Z,18.31
2022-09-02T07:28:47.160Z,18.33
2022-09-02T07:31:16.323Z,18.55
2022-09-02T07:33:45.103Z,18.60
2022-09-02T07:36:16.887Z,18.46
2022-09-02T07:38:43.662Z,18.59
2022-09-02T07:41:10.721Z,18.66
2022-09-02T07:43:41.180Z,18.73
2022-09-02T07:46:08.078Z,18.65
2022-09-02T07:48:35.849Z,18.84
2022-09-02T07:51:02.981Z,18.98
2022-09-02T07:53:30.261Z,19.21
2022-09-02T07:55:57.051Z,19.36
2022-09-02T07:58:23.820Z,19.30
2022-09-02T08:00:51.164Z,19.34
2022-09-02T08:03:18.023Z,18.95
2022-09-02T08:05:47.274Z,18.97
2022-09-02T08:08:20.419Z,18.95
2022-09-02T08:10:52.216Z,18.92
2022-09-02T08:13:20.071Z,18.84
2022-09-02T08:15:46.902Z,19.19
2022-09-02T08:18:21.824Z,19.12
2022-09-02T08:20:49.684Z,19.08
2022-09-02T08:23:36.068Z,19.21
2022-09-02T08:26:05.779Z,19.38
2022-09-02T08:28:32.642Z,19.47
2022-09-02T08:30:59.594Z,19.34
2022-09-02T08:33:26.545Z,19.27
2022-09-02T08:35:53.383Z,19.23
2022-09-02T08:38:22.170Z,19.08
2022-09-02T08:40:51.239Z,19.19
2022-09-02T08:43:39.998Z,19.65
2022-09-02T08:46:11.361Z,19.50
2022-09-02T08:48:45.928Z,19.66
2022-09-02T08:51:37.425Z,19.85
2022-09-02T08:54:24.632Z,19.69
2022-09-02T08:56:51.858Z,19.94
2022-09-02T08:59:22.821Z,20.09
2022-09-02T09:02:09.751Z,20.02
2022-09-02T09:05:11.758Z,20.15
2022-09-02T09:08:03.276Z,20.31
2022-09-02T09:10:54.927Z,20.60
2022-09-02T09:13:43.275Z,20.39
2022-09-02T09:16:12.726Z,20.38
2022-09-02T09:18:44.888Z,20.29
2022-09-02T09:21:12.159Z,20.11
2022-09-02T09:23:40.169Z,19.94
2022-09-02T09:26:17.344Z,19.48
2022-09-02T09:28:49.036Z,19.75
2022-09-02T09:31:19.861Z,19.97
2022-09-02T09:34:06.690Z,20.06
2022-09-02T09:36:45.063Z,20.26
2022-09-02T09:39:25.304Z,20.29
2022-09-02T09:41:54.590Z,20.29
2022-09-02T09:44:46.128Z,20.09
2022-09-02T09:47:22.893Z,20.49
2022-09-02T09:49:52.508Z,20.71
2022-09-02T09:52:27.545Z,21.10
2022-09-02T09:55:14.513Z,21.23
2022-09-02T09:57:45.603Z,20.99
2022-09-02T10:00:16.380Z,21.07
2022-09-02T10:02:56.917Z,21.20
2022-09-02T10:05:26.736Z,21.08
2022-09-02T10:08:03.367Z,20.98
2022-09-02T10:10:33.188Z,20.80
2022-09-02T10:13:24.966Z,20.66
2022-09-02T10:16:13.452Z,21.14
2022-09-02T10:19:02.627Z,21.00
2022-09-02T10:21:39.892Z,20.44
2022-09-02T10:24:15.321Z,20.37
2022-09-02T10:26:53.970Z,20.14
2022-09-02T10:29:30.008Z,20.16
2022-09-02T10:32:12.484Z,20.07
2022-09-02T10:34:57.648Z,20.24
2022-09-02T10:37:25.229Z,20.48
2022-09-02T10:40:10.582Z,20.19
2022-09-02T10:42:56.156Z,20.47
2022-09-02T10:45:44.088Z,20.56
2022-09-02T10:48:28.697Z,20.68
2022-09-02T10:51:04.751Z,20.57
2022-09-02T10:54:10.951Z,20.60
2022-09-02T10:56:47.213Z,20.92
2022-09-02T10:59:20.526Z,20.90
2022-09-02T11:01:55.081Z,21.08
2022-09-02T11:04:40.593Z,20.90
2022-09-02T11:07:14.225Z,20.81
2022-09-02T11:09:48.067Z,20.48
2022-09-02T11:12:23.170Z,20.45
2022-09-02T11:15:27.206Z,20.27
2022-09-02T11:20:44.347Z,20.62
2022-09-02T11:23:37.365Z,20.90
2022-09-02T11:26:16.240Z,20.70
2022-09-02T11:29:01.723Z,20.41
2022-09-02T11:31:43.141Z,20.08
2022-09-02T11:34:21.543Z,20.07
2022-09-02T11:36:49.178Z,20.02
2022-09-02T11:39:21.894Z,20.27
2022-09-02T11:42:32.814Z,20.18
2022-09-02T11:45:06.246Z,20.21
2022-09-02T11:47:46.327Z,20.24
2022-09-02T11:50:18.649Z,20.38
2022-09-02T11:52:51.959Z,20.46
2022-09-02T11:55:29.321Z,20.32
2022-09-02T11:57:58.497Z,20.33
2022-09-02T12:00:29.314Z,20.21
2022-09-02T12:03:39.178Z,20.13
2022-09-02T12:06:11.607Z,20.24
2022-09-02T12:08:43.074Z,20.36
2022-09-02T12:11:30.781Z,20.17
2022-09-02T12:14:00.023Z,20.28
2022-09-02T12:16:29.454Z,20.14
2022-09-02T12:18:58.294Z,20.06
2022-09-02T12:21:26.723Z,19.93
2022-09-02T12:23:56.646Z,19.99
2022-09-02T12:26:30.359Z,19.93
2022-09-02T12:29:20.528Z,20.26
2022-09-02T12:31:53.584Z,20.38
2022-09-02T12:34:20.252Z,20.39
2022-09-02T12:36:56.971Z,20.41
2022-09-02T12:39:29.201Z,20.53
2022-09-02T12:42:01.621Z,20.50
2022-09-02T12:44:47.164Z,20.50
2022-09-02T12:47:19.844Z,20.51
2022-09-02T12:50:05.033Z,20.42
2022-09-02T12:52:34.539Z,20.55
2022-09-02T12:55:11.209Z,20.85
2022-09-02T12:57:43.707Z,20.88
2022-09-02T13:00:16.167Z,20.94
2022-09-02T13:03:01.343Z,20.93
2022-09-02T13:06:01.918Z,21.10
2022-09-02T13:08:46.943Z,21.10
2022-09-02T13:11:22.275Z,21.12
2022-09-02T13:14:33.462Z,21.02
2022-09-02T13:17:36.245Z,21.08
2022-09-02T13:20:40.513Z,21.12
2022-09-02T13:23:19.107Z,21.22
2022-09-02T13:26:47.805Z,21.18
2022-09-02T13:29:23.934Z,21.14
2022-09-02T13:32:12.758Z,21.04
2022-09-02T13:34:44.570Z,20.77
2022-09-02T13:37:39.001Z,20.44
2022-09-02T13:40:23.681Z,20.39
2022-09-02T13:42:56.275Z,20.26
2022-09-02T13:45:25.948Z,20.21
2022-09-02T13:47:54.956Z,20.23
2022-09-02T13:50:27.070Z,20.22
2022-09-02T13:55:57.257Z,20.19
2022-09-02T13:58:53.982Z,20.23
2022-09-02T14:01:23.004Z,20.22
2022-09-02T14:03:55.225Z,20.20
2022-09-02T14:06:30.855Z,20.21
2022-09-02T14:09:01.449Z,20.25
2022-09-02T14:11:29.834Z,20.19
2022-09-02T14:13:57.747Z,20.28
2022-09-02T14:16:36.225Z,20.20
2022-09-02T14:19:08.791Z,20.14
2022-09-02T14:21:37.372Z,20.03
2022-09-02T14:24:04.885Z,20.05
2022-09-02T14:26:41.381Z,20.03
2022-09-02T14:29:08.876Z,20.00
2022-09-02T14:31:37.934Z,20.03
2022-09-02T14:34:06.456Z,19.98
2022-09-02T14:36:38.551Z,19.94
2022-09-02T14:39:17.099Z,19.88
2022-09-02T14:41:45.797Z,19.86
2022-09-02T14:44:34.701Z,19.81
2022-09-02T14:47:07.618Z,19.80
2022-09-02T14:49:36.824Z,19.78
2022-09-02T14:52:16.038Z,19.78
2022-09-02T14:54:45.465Z,19.69
2022-09-02T14:57:28.669Z,19.67
2022-09-02T15:00:01.453Z,19.65
2022-09-02T15:02:28.110Z,19.58
2022-09-02T15:05:07.397Z,19.51
2022-09-02T15:07:34.369Z,19.46
2022-09-02T15:10:01.291Z,19.42
2022-09-02T15:12:30.491Z,19.43
2022-09-02T15:14:57.968Z,19.45
2022-09-02T15:17:25.744Z,19.46
2022-09-02T15:19:52.488Z,19.44
2022-09-02T15:22:20.299Z,19.47
2022-09-02T15:24:48.673Z,19.46
2022-09-02T15:27:15.831Z,19.47
2022-09-02T15:29:48.565Z,19.49
2022-09-02T15:32:15.439Z,19.53
2022-09-02T15:34:42.335Z,19.55
2022-09-02T15:37:12.859Z,19.58
2022-09-02T15:39:40.342Z,19.60
2022-09-02T15:42:07.283Z,19.60
2022-09-02T15:44:34.155Z,19.57
2022-09-02T15:47:00.964Z,19.58
2022-09-02T15:49:27.857Z,19.51
2022-09-02T15:51:55.327Z,19.38
2022-09-02T15:54:24.286Z,19.35
2022-09-02T15:56:56.019Z,19.24
2022-09-02T15:59:23.465Z,19.22
2022-09-02T16:01:55.103Z,19.15
2022-09-02T16:04:22.317Z,19.03
2022-09-02T16:06:52.401Z,18.93
2022-09-02T16:09:19.766Z,18.89
2022-09-02T16:11:49.722Z,18.82
2022-09-02T16:14:20.479Z,18.74
2022-09-02T16:16:49.245Z,18.59
2022-09-02T16:19:16.400Z,18.53
2022-09-02T16:21:43.076Z,18.49
2022-09-02T16:24:10.090Z,18.48
2022-09-02T16:26:39.474Z,18.35
2022-09-02T16:29:09.999Z,18.26
2022-09-02T16:31:40.627Z,18.19
2022-09-02T16:34:10.316Z,18.14
2022-09-02T16:36:40.327Z,18.07
2022-09-02T16:39:08.448Z,18.00
2022-09-02T16:41:43.962Z,17.93
2022-09-02T16:44:16.982Z,17.85
2022-09-02T16:46:45.050Z,17.80
2022-09-02T16:49:14.511Z,17.69
2022-09-02T16:51:41.369Z,17.64
2022-09-02T16:54:09.601Z,17.62
2022-09-02T16:56:44.794Z,17.58
2022-09-02T16:59:12.871Z,17.52
2022-09-02T17:01:41.046Z,17.46
2022-09-02T17:04:09.022Z,17.40
2022-09-02T17:06:39.934Z,17.33
2022-09-02T17:09:09.081Z,17.20
2022-09-02T17:11:39.712Z,17.09
2022-09-02T17:14:16.504Z,17.05
2022-09-02T17:16:49.022Z,16.96
2022-09-02T17:19:21.848Z,16.89
2022-09-02T17:21:54.106Z,16.84
2022-09-02T17:24:23.392Z,16.78
2022-09-02T17:26:52.253Z,16.70
2022-09-02T17:29:47.573Z,16.63
2022-09-02T17:32:08.393Z,16.55
2022-09-02T17:34:35.118Z,16.43
2022-09-02T17:37:01.981Z,16.35
2022-09-02T17:39:28.731Z,16.29
2022-09-02T17:41:55.583Z,16.21
2022-09-02T17:44:42.656Z,16.12
2022-09-02T17:47:20.141Z,16.02
2022-09-02T17:49:47.963Z,15.90
2022-09-02T17:52:23.401Z,15.82
2022-09-02T17:54:52.351Z,15.76
2022-09-02T17:57:43.165Z,15.75
2022-09-02T18:00:17.471Z,15.66
2022-09-02T18:03:13.073Z,15.65
2022-09-02T18:05:44.152Z,15.63
2022-09-02T18:08:28.858Z,15.61
2022-09-02T18:10:58.510Z,15.61
2022-09-02T18:13:31.892Z,15.59
2022-09-02T18:16:20.911Z,15.58
2022-09-02T18:19:00.104Z,15.55
2022-09-02T18:21:41.576Z,15.53
2022-09-02T18:24:19.815Z,15.48
2022-09-02T18:27:15.715Z,15.46
2022-09-02T18:30:00.498Z,15.47
2022-09-02T18:32:45.725Z,15.47
2022-09-02T18:35:31.776Z,15.42
2022-09-02T18:38:28.295Z,15.39
2022-09-02T18:41:05.838Z,15.32
2022-09-02T18:43:50.943Z,15.32
2022-09-02T18:46:19.498Z,15.33
2022-09-02T18:48:53.295Z,15.32
2022-09-02T18:51:42.122Z,15.31
2022-09-02T18:54:22.852Z,15.28
2022-09-02T18:56:55.759Z,15.25
2022-09-02T18:59:43.245Z,15.23
2022-09-02T19:02:23.910Z,15.23
2022-09-02T19:04:50.726Z,15.22
2022-09-02T19:07:38.691Z,15.21
2022-09-02T19:10:06.273Z,15.19
2022-09-02T19:12:36.315Z,15.21
2022-09-02T19:15:08.049Z,15.18
2022-09-02T19:17:34.961Z,15.16
2022-09-02T19:20:02.049Z,15.15
2022-09-02T19:22:30.516Z,15.16
2022-09-02T19:25:02.986Z,15.18
2022-09-02T19:27:33.831Z,15.18
2022-09-02T19:30:12.504Z,15.15
2022-09-02T19:32:43.945Z,15.13
2022-09-02T19:35:19.150Z,15.13
2022-09-02T19:37:47.964Z,15.15
2022-09-02T19:40:20.201Z,15.12
2022-09-02T19:42:47.252Z,15.08
2022-09-02T19:45:16.381Z,15.05
2022-09-02T19:48:06.427Z,15.03
2022-09-02T19:50:30.340Z,15.01
2022-09-02T19:52:57.349Z,14.97
2022-09-02T19:55:24.182Z,14.97
2022-09-02T19:57:53.315Z,14.95
2022-09-02T20:00:20.357Z,14.94
2022-09-02T20:02:47.016Z,14.90
2022-09-02T20:05:14.375Z,14.88
2022-09-02T20:07:41.784Z,14.84
2022-09-02T20:10:09.508Z,14.86
2022-09-02T20:12:36.518Z,14.87
2022-09-02T20:15:04.969Z,14.90
2022-09-02T20:17:32.421Z,14.89
2022-09-02T20:20:01.322Z,14.87
2022-09-02T20:22:30.186Z,14.89
2022-09-02T20:24:58.246Z,14.87
2022-09-02T20:28:04.735Z,14.81
2022-09-02T20:30:36.096Z,14.84
2022-09-02T20:33:13.954Z,14.88
2022-09-02T20:35:43.369Z,14.90
2022-09-02T20:38:48.883Z,14.93
2022-09-02T20:41:21.597Z,14.88
2022-09-02T20:43:54.639Z,14.81
2022-09-02T20:46:39.357Z,14.80
2022-09-02T20:49:21.578Z,14.77
2022-09-02T20:51:53.386Z,14.74
2022-09-02T20:54:48.661Z,14.72
2022-09-02T20:57:21.722Z,14.72
2022-09-02T21:00:09.721Z,14.71
2022-09-02T21:02:51.269Z,14.68
2022-09-02T21:05:24.390Z,14.69
2022-09-02T21:08:03.911Z,14.72
2022-09-02T21:10:39.015Z,14.69
2022-09-02T21:13:11.613Z,14.67
2022-09-02T21:16:00.222Z,14.63
2022-09-02T21:18:41.705Z,14.61
2022-09-02T21:21:51.131Z,14.59
2022-09-02T21:24:38.849Z,14.51
2022-09-02T21:27:14.699Z,14.47
2022-09-02T21:29:59.010Z,14.47
2022-09-02T21:32:42.149Z,14.48
2022-09-02T21:35:21.419Z,14.45
2022-09-02T21:37:53.065Z,14.43
2022-09-02T21:40:21.704Z,14.40
2022-09-02T21:43:14.713Z,14.36
2022-09-02T21:46:08.162Z,14.30
2022-09-02T21:49:01.015Z,14.15
2022-09-02T21:51:41.205Z,14.04
2022-09-02T21:54:49.279Z,13.94
2022-09-02T21:57:32.863Z,13.94
2022-09-02T22:00:08.225Z,13.92
2022-09-02T22:02:52.594Z,13.89
2022-09-02T22:05:28.899Z,13.83
2022-09-02T22:08:17.373Z,13.57
2022-09-02T22:11:09.983Z,13.43
2022-09-02T22:13:41.983Z,13.42
2022-09-02T22:16:19.007Z,13.42
2022-09-02T22:18:55.447Z,13.35
2022-09-02T22:21:47.173Z,13.25
2022-09-02T22:24:22.440Z,13.10
2022-09-02T22:26:53.370Z,13.03
2022-09-02T22:29:29.084Z,12.95
2022-09-02T22:32:00.486Z,12.89
2022-09-02T22:34:30.290Z,12.91
2022-09-02T22:37:02.713Z,12.89
2022-09-02T22:39:44.521Z,12.85
2022-09-02T22:42:29.562Z,12.84
2022-09-02T22:45:27.076Z,12.81
2022-09-02T22:48:18.897Z,12.76
2022-09-02T22:51:10.410Z,12.73
2022-09-02T22:53:37.103Z,12.77
2022-09-02T22:56:11.451Z,12.79
2022-09-02T22:59:11.011Z,12.80
2022-09-02T23:01:57.292Z,12.80
2022-09-02T23:04:47.553Z,12.85
2022-09-02T23:07:14.461Z,12.89
2022-09-02T23:09:41.183Z,12.90
2022-09-02T23:12:40.296Z,12.86
2022-09-02T23:15:27.305Z,12.80
2022-09-02T23:18:09.680Z,12.75
2022-09-02T23:20:45.382Z,12.72
2022-09-02T23:23:39.109Z,12.75
2022-09-02T23:26:26.022Z,12.73
2022-09-02T23:29:16.606Z,12.71
2022-09-02T23:31:47.563Z,12.66
2022-09-02T23:34:34.452Z,12.62
2022-09-02T23:37:25.198Z,12.58
2022-09-02T23:40:22.566Z,12.57
2022-09-02T23:42:50.186Z,12.56
2022-09-02T23:45:21.978Z,12.55
2022-09-02T23:48:03.616Z,12.51
2022-09-02T23:50:36.085Z,12.47
2022-09-02T23:53:11.939Z,12.44
2022-09-02T23:56:10.081Z,12.40
2022-09-02T23:59:00.832Z,12.35
